Terminal Aerodrome Forecast
Issued by NWS

Home | Current Version | Previous Version | Text Only | Print | Product List | Glossary On
Versions: 1 2 3 4 5 6 7 8 9 10 11 12 13 14 15 16 17 18 19 20 21
000
FTUS46 KSGX 171100
TAFCRQ
TAF
KCRQ 171126Z 1712/1812 VRB04KT P6SM OVC015
     FM171800 VRB04KT P6SM SCT018 SCT200
     FM172000 24008KT P6SM SCT018 SCT200
     FM180000 VRB04KT P6SM OVC017=

USA.gov is the U.S. government's official web portal to all federal, state and local government web resources and services.